Time;durP1;ratioP1;P1;durP2;ratioP2;P2;SDS_P1;SDS_P2;PMS_P1;PMS_P2;Temp;Humidity;BMP_temperature;BMP_pressure;BME280_temperature;BME280_humidity;BME280_pressure;Samples;Min_cycle;Max_cycle;Signal;HPM_P1;HPM_P2
2022/06/24 00:00:57;;;;;;;4.40;2.10;;;18.10;99.90;;;;;;5095644;28;20212;-46
2022/06/24 00:03:22;;;;;;;2.50;1.87;;;18.20;99.90;;;;;;5094997;28;20207;-46
2022/06/24 00:05:48;;;;;;;4.83;2.10;;;18.20;99.90;;;;;;5099365;28;20462;-44
2022/06/24 00:08:15;;;;;;;4.70;2.03;;;18.30;99.90;;;;;;5100388;28;20180;-42
2022/06/24 00:10:43;;;;;;;3.60;2.10;;;18.30;99.90;;;;;;5098095;28;20181;-46
2022/06/24 00:13:08;;;;;;;3.47;2.00;;;18.40;99.90;;;;;;5100601;28;20788;-44
2022/06/24 00:15:35;;;;;;;5.00;3.83;;;18.50;99.90;;;;;;5099876;28;20539;-42
2022/06/24 00:18:11;;;;;;;3.27;2.00;;;18.50;99.90;;;;;;5096715;28;20432;-44
2022/06/24 00:20:45;;;;;;;3.50;2.27;;;18.60;99.90;;;;;;5100503;28;20693;-44
2022/06/24 00:23:13;;;;;;;5.50;2.53;;;18.60;99.90;;;;;;5099261;28;20468;-44
2022/06/24 00:25:39;;;;;;;6.97;2.63;;;18.70;99.90;;;;;;5099363;28;20434;-42
2022/06/24 00:28:09;;;;;;;7.60;2.80;;;18.80;99.90;;;;;;5098634;28;20419;-43
2022/06/24 00:30:43;;;;;;;5.93;2.53;;;18.80;99.90;;;;;;5099817;28;20550;-44
2022/06/24 00:33:11;;;;;;;8.20;3.10;;;18.90;99.90;;;;;;5098018;28;20432;-44
2022/06/24 00:35:42;;;;;;;3.70;2.30;;;18.90;99.90;;;;;;5098790;28;20437;-42
2022/06/24 00:38:21;;;;;;;4.23;2.00;;;18.90;99.90;;;;;;5099294;28;20415;-42
2022/06/24 00:40:47;;;;;;;3.90;2.30;;;18.90;99.90;;;;;;5100381;28;20715;-43
2022/06/24 00:43:35;;;;;;;3.90;2.23;;;18.90;99.90;;;;;;5098855;28;20465;-42
2022/06/24 00:46:04;;;;;;;5.77;2.97;;;18.90;99.90;;;;;;5099345;28;20778;-47
2022/06/24 00:48:31;;;;;;;5.17;2.13;;;18.90;99.90;;;;;;5099964;28;20834;-47
2022/06/24 00:50:56;;;;;;;3.10;2.50;;;18.80;99.90;;;;;;5099855;28;20430;-47
2022/06/24 00:53:22;;;;;;;5.97;2.67;;;18.70;99.90;;;;;;5099559;28;20766;-48
2022/06/24 00:55:48;;;;;;;4.10;2.50;;;18.70;99.90;;;;;;5099452;28;20181;-43
2022/06/24 00:58:16;;;;;;;5.80;2.70;;;18.50;99.90;;;;;;5099720;28;20173;-44
2022/06/24 01:00:44;;;;;;;4.10;2.40;;;18.50;99.90;;;;;;5099087;28;20208;-43
2022/06/24 01:03:11;;;;;;;5.00;2.90;;;18.40;99.90;;;;;;5099453;28;20467;-45
2022/06/24 01:05:37;;;;;;;4.40;2.30;;;18.30;99.90;;;;;;5098819;28;20716;-44
2022/06/24 01:08:08;;;;;;;4.30;2.80;;;18.30;99.90;;;;;;5099294;28;20432;-43
2022/06/24 01:10:34;;;;;;;4.30;2.03;;;18.30;99.90;;;;;;5099742;28;20186;-44
2022/06/24 01:13:00;;;;;;;5.80;3.20;;;18.30;99.90;;;;;;5100053;28;20446;-44
2022/06/24 01:15:26;;;;;;;4.77;2.50;;;18.30;99.90;;;;;;5097585;28;20429;-44
2022/06/24 01:17:52;;;;;;;5.13;2.50;;;18.20;99.90;;;;;;5099694;28;20814;-42
2022/06/24 01:20:18;;;;;;;4.90;3.10;;;18.20;99.90;;;;;;5099615;28;20177;-43
2022/06/24 01:22:43;;;;;;;5.87;2.83;;;18.10;99.90;;;;;;5099106;28;20552;-42
2022/06/24 01:25:10;;;;;;;5.90;2.80;;;18.10;99.90;;;;;;5099193;28;20514;-43
2022/06/24 01:27:37;;;;;;;4.80;2.30;;;18.10;99.90;;;;;;5099151;28;20427;-44
2022/06/24 01:30:04;;;;;;;5.57;3.00;;;18.10;99.90;;;;;;5098621;28;20443;-42
2022/06/24 01:32:29;;;;;;;4.93;2.77;;;18.10;99.90;;;;;;5099232;28;20474;-45
2022/06/24 01:34:56;;;;;;;5.60;3.93;;;18.00;99.90;;;;;;5098790;28;20907;-44
2022/06/24 01:37:25;;;;;;;7.67;2.43;;;18.00;99.90;;;;;;5098809;28;20179;-44
2022/06/24 01:39:51;;;;;;;5.30;3.07;;;18.00;99.90;;;;;;5098830;28;20432;-45
2022/06/24 01:42:17;;;;;;;3.93;2.50;;;18.00;99.90;;;;;;5098646;28;20929;-45
2022/06/24 01:45:26;;;;;;;4.57;2.40;;;18.10;99.90;;;;;;5098645;28;20324;-45
2022/06/24 01:47:51;;;;;;;3.47;2.23;;;18.10;99.90;;;;;;5098961;28;20620;-44
2022/06/24 01:50:17;;;;;;;4.00;3.03;;;18.20;99.90;;;;;;5098527;28;20531;-45
2022/06/24 01:52:43;;;;;;;5.67;2.70;;;18.20;99.90;;;;;;5098661;28;20177;-44
2022/06/24 01:55:09;;;;;;;3.60;2.77;;;18.20;99.90;;;;;;5098516;28;20711;-45
2022/06/24 01:57:35;;;;;;;4.17;3.17;;;18.20;99.90;;;;;;5098662;28;20255;-44
2022/06/24 02:00:00;;;;;;;4.80;2.70;;;18.20;99.90;;;;;;5099039;28;20177;-44
2022/06/24 02:02:26;;;;;;;6.57;3.20;;;18.20;99.90;;;;;;5098442;28;20207;-46
2022/06/24 02:04:54;;;;;;;6.33;3.00;;;18.20;99.90;;;;;;5098412;28;20176;-43
2022/06/24 02:07:20;;;;;;;4.33;2.63;;;18.20;99.90;;;;;;5098225;28;20224;-46
2022/06/24 02:15:14;;;;;;;2.90;2.20;;;18.20;99.90;;;;;;5098145;28;20909;-46
2022/06/24 02:17:40;;;;;;;4.90;2.97;;;18.10;99.90;;;;;;5097465;28;20438;-47
2022/06/24 02:20:06;;;;;;;5.07;2.77;;;18.10;99.90;;;;;;5097677;28;20176;-46
2022/06/24 02:22:32;;;;;;;4.43;2.80;;;18.10;99.90;;;;;;5098179;28;20224;-45
2022/06/24 02:24:58;;;;;;;7.43;2.50;;;18.10;99.90;;;;;;5097896;28;20423;-44
2022/06/24 02:27:24;;;;;;;7.30;3.30;;;18.10;99.90;;;;;;5097266;28;20391;-46
2022/06/24 02:29:50;;;;;;;6.70;2.77;;;18.10;99.90;;;;;;5097680;28;20418;-44
2022/06/24 02:32:15;;;;;;;5.83;2.67;;;18.10;99.90;;;;;;5098065;28;20334;-47
2022/06/24 02:34:41;;;;;;;6.50;2.90;;;18.10;99.90;;;;;;5097971;28;20208;-45
2022/06/24 02:37:07;;;;;;;5.23;2.80;;;18.20;99.90;;;;;;5098305;28;20268;-46
2022/06/24 02:39:32;;;;;;;4.60;2.73;;;18.20;99.90;;;;;;5097795;28;20179;-44
2022/06/24 02:41:58;;;;;;;4.60;2.40;;;18.20;99.90;;;;;;5097891;28;20615;-45
2022/06/24 02:44:24;;;;;;;4.10;2.20;;;18.20;99.90;;;;;;5097932;28;20257;-46
2022/06/24 02:46:49;;;;;;;6.77;2.80;;;18.20;99.90;;;;;;5097478;28;20202;-46
2022/06/24 02:49:15;;;;;;;5.03;3.00;;;18.30;99.90;;;;;;5096600;28;20254;-46
2022/06/24 02:51:41;;;;;;;3.90;2.70;;;18.30;99.90;;;;;;5095379;28;20170;-45
2022/06/24 02:54:06;;;;;;;3.40;2.67;;;18.20;99.90;;;;;;5095965;28;20257;-45
2022/06/24 02:56:32;;;;;;;5.73;2.90;;;18.20;99.90;;;;;;5097098;28;20177;-45
2022/06/24 02:58:58;;;;;;;7.13;2.83;;;18.10;99.90;;;;;;5096816;28;20174;-45
2022/06/24 03:01:23;;;;;;;3.73;2.57;;;18.10;99.90;;;;;;5095954;28;20569;-45
2022/06/24 03:03:49;;;;;;;4.77;2.40;;;18.10;99.90;;;;;;5095682;28;20201;-44
2022/06/24 03:06:15;;;;;;;4.03;2.40;;;18.00;99.90;;;;;;5096233;28;20260;-45
2022/06/24 03:08:40;;;;;;;5.13;3.10;;;18.00;99.90;;;;;;5097303;28;20184;-45
2022/06/24 03:11:06;;;;;;;6.43;2.83;;;18.00;99.90;;;;;;5097075;28;20260;-46
2022/06/24 03:13:33;;;;;;;5.90;3.40;;;17.90;99.90;;;;;;5097203;28;20173;-45
2022/06/24 03:16:01;;;;;;;8.27;3.13;;;17.80;99.90;;;;;;5097591;28;20188;-49
2022/06/24 03:18:26;;;;;;;4.00;2.87;;;17.80;99.90;;;;;;5097617;28;20499;-49
2022/06/24 03:20:52;;;;;;;7.03;2.93;;;17.80;99.90;;;;;;5097380;28;20871;-50
2022/06/24 03:23:18;;;;;;;5.90;2.77;;;17.80;99.90;;;;;;5097407;28;20208;-48
2022/06/24 03:25:44;;;;;;;5.23;2.97;;;17.90;99.90;;;;;;5097253;28;20459;-49
2022/06/24 03:28:10;;;;;;;8.57;2.70;;;17.90;99.90;;;;;;5097139;28;20484;-48
2022/06/24 03:30:36;;;;;;;7.10;3.03;;;18.00;99.90;;;;;;5097141;28;20551;-49
2022/06/24 03:33:02;;;;;;;6.20;3.07;;;18.10;99.90;;;;;;5097520;28;20555;-52
2022/06/24 03:35:28;;;;;;;6.90;3.20;;;18.20;99.90;;;;;;5095518;28;20253;-50
2022/06/24 03:37:54;;;;;;;5.13;2.60;;;18.30;99.90;;;;;;5096273;28;20451;-50
2022/06/24 03:40:20;;;;;;;4.50;2.57;;;18.40;99.90;;;;;;5098118;28;20467;-50
2022/06/24 03:42:46;;;;;;;8.23;3.17;;;18.40;99.90;;;;;;5099109;28;20656;-51
2022/06/24 03:45:11;;;;;;;3.30;2.47;;;18.50;99.90;;;;;;5099625;28;20211;-48
2022/06/24 03:47:37;;;;;;;3.83;2.53;;;18.50;99.90;;;;;;5099775;28;20189;-49
2022/06/24 03:50:03;;;;;;;4.43;2.60;;;18.50;99.90;;;;;;5100697;28;20169;-49
2022/06/24 03:52:29;;;;;;;5.97;2.50;;;18.50;99.90;;;;;;5100412;28;20184;-48
2022/06/24 03:54:54;;;;;;;5.77;2.90;;;18.60;99.90;;;;;;5100348;28;20832;-49
2022/06/24 03:57:20;;;;;;;4.53;2.83;;;18.60;99.90;;;;;;5100406;28;20287;-48
2022/06/24 03:59:46;;;;;;;3.67;2.77;;;18.70;99.90;;;;;;5099963;28;20179;-48
2022/06/24 04:02:12;;;;;;;6.33;2.80;;;18.70;99.90;;;;;;5099344;28;20466;-53
2022/06/24 04:04:37;;;;;;;5.63;2.83;;;18.80;99.90;;;;;;5098859;28;20291;-49
2022/06/24 04:07:03;;;;;;;5.30;2.83;;;18.70;99.90;;;;;;5097770;28;20173;-49
2022/06/24 04:09:29;;;;;;;7.00;3.13;;;18.70;99.90;;;;;;5097046;28;20177;-48
2022/06/24 04:11:54;;;;;;;6.10;2.90;;;18.70;99.90;;;;;;5097389;28;20413;-49
2022/06/24 04:17:05;;;;;;;3.87;2.93;;;18.60;99.90;;;;;;5096546;28;20470;-50
2022/06/24 04:19:30;;;;;;;6.70;3.00;;;18.50;99.90;;;;;;5098232;28;20704;-48
2022/06/24 04:21:56;;;;;;;5.70;2.80;;;18.60;99.90;;;;;;5097184;28;20471;-49
2022/06/24 04:24:22;;;;;;;4.60;3.00;;;18.70;99.90;;;;;;5098981;28;20173;-48
2022/06/24 04:26:47;;;;;;;3.87;2.97;;;18.70;99.90;;;;;;5096049;28;20458;-48
2022/06/24 04:29:13;;;;;;;6.37;3.37;;;18.60;99.90;;;;;;5096962;28;20331;-49
2022/06/24 04:31:39;;;;;;;7.70;2.93;;;18.50;99.90;;;;;;5096063;28;20241;-57
2022/06/24 04:34:05;;;;;;;25.93;12.23;;;18.40;99.90;;;;;;5097880;28;20420;-55
2022/06/24 04:36:30;;;;;;;7.57;4.57;;;18.40;99.90;;;;;;5097932;28;20392;-54
2022/06/24 04:38:56;;;;;;;13.13;6.53;;;18.60;99.90;;;;;;5097994;28;20189;-58
2022/06/24 04:41:22;;;;;;;12.93;6.10;;;18.70;99.90;;;;;;5097255;28;20497;-57
2022/06/24 04:43:47;;;;;;;10.10;5.07;;;18.70;99.90;;;;;;5094917;28;20194;-56
2022/06/24 04:46:13;;;;;;;10.70;4.50;;;18.80;99.90;;;;;;5096640;28;20199;-56
2022/06/24 04:48:38;;;;;;;6.10;3.90;;;18.90;99.90;;;;;;5098263;28;20543;-57
2022/06/24 04:51:04;;;;;;;8.40;4.30;;;18.90;99.90;;;;;;5097239;28;20245;-57
2022/06/24 04:53:30;;;;;;;9.57;3.60;;;18.90;99.90;;;;;;5098238;28;20207;-58
2022/06/24 04:55:57;;;;;;;7.07;3.17;;;19.00;99.90;;;;;;5097361;28;20263;-57
2022/06/24 04:58:22;;;;;;;7.97;3.50;;;18.90;99.90;;;;;;5097201;28;20422;-57
2022/06/24 05:00:48;;;;;;;6.83;3.00;;;18.90;99.90;;;;;;5096036;28;20433;-56
2022/06/24 05:03:14;;;;;;;7.77;3.30;;;19.00;99.90;;;;;;5095140;28;20219;-58
2022/06/24 05:05:39;;;;;;;6.97;3.23;;;19.10;99.90;;;;;;5095502;28;20187;-57
2022/06/24 05:08:05;;;;;;;5.23;3.20;;;19.10;99.90;;;;;;5096752;28;20187;-58
2022/06/24 05:10:31;;;;;;;4.50;2.93;;;19.10;99.90;;;;;;5095285;28;20183;-58
2022/06/24 05:12:57;;;;;;;5.77;3.27;;;19.10;99.90;;;;;;5096114;28;20282;-58
2022/06/24 05:15:23;;;;;;;6.00;3.13;;;19.10;99.90;;;;;;5096641;28;20188;-55
2022/06/24 05:17:49;;;;;;;7.80;3.40;;;19.10;99.90;;;;;;5095297;28;20423;-58
2022/06/24 05:20:14;;;;;;;6.07;2.97;;;19.30;99.90;;;;;;5092879;28;20180;-58
2022/06/24 05:22:40;;;;;;;7.83;3.23;;;19.20;99.90;;;;;;5091988;28;20315;-57
2022/06/24 05:25:07;;;;;;;5.30;3.00;;;19.30;99.90;;;;;;5093412;28;20175;-59
2022/06/24 05:27:33;;;;;;;5.00;2.90;;;19.50;99.90;;;;;;5091441;28;20179;-54
2022/06/24 05:29:58;;;;;;;7.50;3.43;;;19.60;99.90;;;;;;5090022;28;20521;-55
2022/06/24 05:32:24;;;;;;;6.80;3.40;;;19.70;99.90;;;;;;5091740;28;20610;-54
2022/06/24 05:34:50;;;;;;;4.60;3.10;;;19.80;99.90;;;;;;5094571;28;20534;-58
2022/06/24 05:37:15;;;;;;;7.20;3.07;;;19.90;99.90;;;;;;5091993;28;20183;-58
2022/06/24 05:39:41;;;;;;;7.47;2.93;;;19.90;99.90;;;;;;5092402;28;20190;-56
2022/06/24 05:42:07;;;;;;;8.50;3.80;;;19.90;99.90;;;;;;5094774;28;20219;-55
2022/06/24 05:44:32;;;;;;;4.97;3.20;;;19.90;99.90;;;;;;5094026;28;20205;-58
2022/06/24 05:46:58;;;;;;;5.83;3.77;;;19.90;99.90;;;;;;5091068;28;20175;-57
2022/06/24 05:49:24;;;;;;;4.20;3.23;;;19.90;99.90;;;;;;5093071;28;20179;-58
2022/06/24 05:51:50;;;;;;;6.53;3.47;;;19.80;99.90;;;;;;5094334;28;20283;-58
2022/06/24 05:57:00;;;;;;;4.93;3.10;;;19.70;99.90;;;;;;5094988;28;20429;-58
2022/06/24 05:59:25;;;;;;;5.53;3.00;;;19.80;99.90;;;;;;5091689;28;20716;-56
2022/06/24 06:01:51;;;;;;;8.20;3.90;;;19.90;99.90;;;;;;5093145;28;20416;-57
2022/06/24 06:04:17;;;;;;;5.80;3.50;;;20.00;99.90;;;;;;5090680;28;20430;-56
2022/06/24 06:06:42;;;;;;;4.40;2.90;;;20.00;99.90;;;;;;5089129;28;20193;-59
2022/06/24 06:09:08;;;;;;;5.50;3.40;;;20.00;99.90;;;;;;5091534;28;20705;-58
2022/06/24 06:11:34;;;;;;;14.53;3.57;;;20.20;99.90;;;;;;5091031;28;20508;-58
2022/06/24 06:13:59;;;;;;;8.37;3.50;;;20.40;99.90;;;;;;5092175;28;20458;-57
2022/06/24 06:16:26;;;;;;;4.73;3.23;;;20.40;99.90;;;;;;5092818;28;20267;-58
2022/06/24 06:18:52;;;;;;;7.20;3.70;;;20.30;99.90;;;;;;5093799;28;20183;-56
2022/06/24 06:21:18;;;;;;;7.83;3.73;;;20.40;99.90;;;;;;5094633;28;20425;-57
2022/06/24 06:23:44;;;;;;;7.40;3.33;;;20.50;99.90;;;;;;5093919;28;20495;-58
2022/06/24 06:26:10;;;;;;;7.03;3.13;;;20.40;99.90;;;;;;5095293;28;20236;-55
2022/06/24 06:28:36;;;;;;;8.00;3.87;;;20.40;99.90;;;;;;5094674;28;20433;-56
2022/06/24 06:31:02;;;;;;;8.23;4.07;;;20.50;99.90;;;;;;5093415;28;20498;-58
2022/06/24 06:33:31;;;;;;;5.00;3.33;;;20.80;99.90;;;;;;5092227;28;20766;-58
2022/06/24 06:36:05;;;;;;;5.60;3.03;;;20.60;99.80;;;;;;5093269;28;20435;-57
2022/06/24 06:38:31;;;;;;;8.20;3.63;;;20.80;99.90;;;;;;5093522;28;20469;-58
2022/06/24 06:40:56;;;;;;;10.10;4.10;;;20.90;99.00;;;;;;5095936;28;20423;-58
2022/06/24 06:43:22;;;;;;;5.90;3.30;;;20.90;98.90;;;;;;5097348;28;20219;-57
2022/06/24 06:45:48;;;;;;;6.20;3.80;;;21.00;99.00;;;;;;5096307;28;20192;-57
2022/06/24 06:48:13;;;;;;;5.57;3.53;;;21.10;99.10;;;;;;5095309;28;20184;-56
2022/06/24 06:50:39;;;;;;;6.33;3.40;;;21.20;98.70;;;;;;5094386;28;20176;-58
2022/06/24 06:53:05;;;;;;;4.90;3.20;;;21.40;98.70;;;;;;5094910;28;20192;-57
2022/06/24 06:55:30;;;;;;;6.17;3.67;;;21.40;97.60;;;;;;5094026;28;20196;-54
2022/06/24 06:57:56;;;;;;;3.87;3.47;;;21.40;98.00;;;;;;5091603;28;20210;-57
2022/06/24 07:00:22;;;;;;;4.33;3.83;;;21.60;97.00;;;;;;5093706;28;20640;-58
2022/06/24 07:02:47;;;;;;;5.90;3.90;;;21.40;96.20;;;;;;5092717;28;20216;-57
2022/06/24 07:05:13;;;;;;;5.27;3.40;;;21.30;96.40;;;;;;5090835;28;20298;-58
2022/06/24 07:07:39;;;;;;;5.97;3.80;;;21.10;96.90;;;;;;5094664;28;20574;-58
2022/06/24 07:10:05;;;;;;;6.83;4.27;;;21.00;97.50;;;;;;5093600;28;20266;-57
2022/06/24 07:12:30;;;;;;;8.40;3.83;;;21.00;97.40;;;;;;5093937;28;20190;-57
2022/06/24 07:14:56;;;;;;;8.00;4.23;;;21.20;97.60;;;;;;5092225;28;20832;-58
2022/06/24 07:17:22;;;;;;;6.30;4.03;;;21.40;97.00;;;;;;5094517;28;20232;-58
2022/06/24 07:19:47;;;;;;;5.77;3.30;;;21.60;97.20;;;;;;5093241;28;20178;-57
2022/06/24 07:22:14;;;;;;;4.57;3.30;;;21.50;96.60;;;;;;5095541;28;20222;-58
2022/06/24 07:24:39;;;;;;;7.80;3.20;;;21.70;96.60;;;;;;5094291;28;20179;-57
2022/06/24 07:27:08;;;;;;;5.10;3.57;;;21.60;96.40;;;;;;5095204;28;20424;-57
2022/06/24 07:29:34;;;;;;;5.20;3.30;;;21.60;96.70;;;;;;5095956;28;20457;-58
2022/06/24 07:32:00;;;;;;;6.20;2.93;;;21.50;96.00;;;;;;5096505;28;20463;-58
2022/06/24 07:34:26;;;;;;;4.37;3.30;;;21.50;95.80;;;;;;5096121;28;20427;-58
2022/06/24 07:36:53;;;;;;;5.00;3.50;;;21.60;95.70;;;;;;5097441;28;20481;-58
2022/06/24 07:39:19;;;;;;;6.40;3.63;;;21.70;95.70;;;;;;5096305;28;20466;-55
2022/06/24 07:41:44;;;;;;;10.10;4.00;;;22.00;96.00;;;;;;5095912;28;20759;-57
2022/06/24 07:44:10;;;;;;;4.63;3.57;;;22.30;95.10;;;;;;5095112;28;20693;-58
2022/06/24 07:46:36;;;;;;;5.30;3.43;;;22.60;94.40;;;;;;5095876;28;20195;-59
2022/06/24 07:49:01;;;;;;;5.83;3.50;;;22.70;92.80;;;;;;5095760;28;20286;-56
2022/06/24 07:51:27;;;;;;;6.27;3.10;;;22.70;92.50;;;;;;5095518;28;20175;-57
2022/06/24 07:53:53;;;;;;;4.20;2.83;;;22.70;93.00;;;;;;5093996;28;20270;-58
2022/06/24 07:59:04;;;;;;;4.43;2.90;;;22.70;92.30;;;;;;5094535;28;20474;-57
2022/06/24 08:01:29;;;;;;;4.90;2.93;;;22.40;92.10;;;;;;5096217;28;20492;-57
2022/06/24 08:03:55;;;;;;;3.37;2.50;;;22.10;93.00;;;;;;5097469;28;20687;-53
2022/06/24 08:06:20;;;;;;;4.43;3.67;;;22.20;92.90;;;;;;5093435;28;20229;-56
2022/06/24 08:08:46;;;;;;;3.83;3.10;;;22.30;92.50;;;;;;5094258;28;20283;-57
2022/06/24 08:11:12;;;;;;;4.20;3.43;;;22.50;92.60;;;;;;5094069;28;20189;-56
2022/06/24 08:13:38;;;;;;;5.00;2.90;;;22.70;92.10;;;;;;5095494;28;20412;-58
2022/06/24 08:16:04;;;;;;;3.47;2.60;;;23.00;91.60;;;;;;5095271;28;20186;-56
2022/06/24 08:18:29;;;;;;;4.63;2.77;;;23.40;91.70;;;;;;5096037;28;20430;-57
2022/06/24 08:20:55;;;;;;;4.03;2.83;;;24.00;91.00;;;;;;5097568;28;20603;-56
2022/06/24 08:23:21;;;;;;;3.60;2.40;;;24.50;90.10;;;;;;5096335;28;20244;-57
2022/06/24 08:25:46;;;;;;;4.57;3.13;;;24.80;88.90;;;;;;5097752;28;20544;-59
2022/06/24 08:28:12;;;;;;;4.33;3.10;;;25.10;86.30;;;;;;5098326;28;20182;-58
2022/06/24 08:30:37;;;;;;;4.13;2.87;;;25.50;85.30;;;;;;5097767;28;20226;-54
2022/06/24 08:33:04;;;;;;;4.83;3.00;;;25.40;84.00;;;;;;5096283;28;20180;-56
2022/06/24 08:35:30;;;;;;;4.93;2.90;;;25.30;82.90;;;;;;5096862;28;20252;-56
2022/06/24 08:37:58;;;;;;;3.90;2.80;;;25.20;84.00;;;;;;5096374;28;20460;-58
2022/06/24 08:40:25;;;;;;;4.37;2.60;;;25.20;83.90;;;;;;5097129;28;20436;-56
2022/06/24 08:42:53;;;;;;;3.13;2.83;;;25.10;83.80;;;;;;5078557;28;20912;-59
2022/06/24 08:45:19;;;;;;;3.57;2.70;;;25.00;84.80;;;;;;5094837;28;20425;-57
2022/06/24 08:47:47;;;;;;;3.20;2.70;;;24.80;85.50;;;;;;5095903;28;20468;-59
2022/06/24 08:50:13;;;;;;;4.73;2.60;;;25.00;85.30;;;;;;5094849;28;20376;-57
2022/06/24 08:52:40;;;;;;;3.03;2.73;;;25.40;83.90;;;;;;5095324;28;20489;-57
2022/06/24 08:55:07;;;;;;;3.60;3.30;;;25.80;82.80;;;;;;5095560;28;20431;-57
2022/06/24 08:57:32;;;;;;;4.50;2.90;;;25.90;81.50;;;;;;5096217;28;20438;-56
2022/06/24 08:59:59;;;;;;;3.70;2.50;;;26.00;81.70;;;;;;5098007;28;20434;-59
2022/06/24 09:02:25;;;;;;;3.90;2.83;;;26.30;80.40;;;;;;5097742;28;20203;-58
2022/06/24 09:04:51;;;;;;;4.27;2.90;;;26.70;78.50;;;;;;5095653;28;20422;-58
2022/06/24 09:07:27;;;;;;;10.10;4.10;;;27.10;76.10;;;;;;5094984;28;20176;-57
2022/06/24 09:10:06;;;;;;;3.07;2.77;;;27.50;76.90;;;;;;5094882;28;20437;-58
2022/06/24 09:12:40;;;;;;;3.80;2.83;;;28.10;73.30;;;;;;5096678;28;20445;-57
2022/06/24 09:15:08;;;;;;;3.30;2.43;;;28.10;71.70;;;;;;5097371;28;20696;-57
2022/06/24 09:17:35;;;;;;;5.97;2.57;;;27.70;72.40;;;;;;5095082;28;20426;-57
2022/06/24 09:20:14;;;;;;;37.63;7.87;;;27.50;72.30;;;;;;5096603;28;20505;-57
2022/06/24 09:22:40;;;;;;;3.03;2.73;;;27.20;72.40;;;;;;5093377;28;20798;-58
2022/06/24 09:25:06;;;;;;;5.80;3.40;;;27.00;71.80;;;;;;5093685;28;20476;-57
2022/06/24 09:27:33;;;;;;;3.57;2.60;;;27.10;73.10;;;;;;5094251;28;20196;-58
2022/06/24 09:29:59;;;;;;;2.90;2.60;;;27.10;71.60;;;;;;5093598;28;20429;-57
2022/06/24 09:32:25;;;;;;;4.93;3.37;;;27.10;71.20;;;;;;5093382;28;20488;-59
2022/06/24 09:35:07;;;;;;;3.90;2.10;;;27.20;70.40;;;;;;5094962;28;20207;-59
2022/06/24 09:37:33;;;;;;;4.23;2.57;;;26.80;69.20;;;;;;5096666;28;20247;-58
2022/06/24 09:40:13;;;;;;;4.23;2.73;;;26.60;72.00;;;;;;5096266;28;20432;-57
2022/06/24 09:42:39;;;;;;;3.73;3.00;;;26.60;73.00;;;;;;5094367;28;20477;-57
2022/06/24 09:45:05;;;;;;;3.03;2.50;;;26.70;73.60;;;;;;5092946;28;20470;-57
2022/06/24 09:47:31;;;;;;;7.57;2.57;;;27.10;72.20;;;;;;5092768;28;20249;-54
2022/06/24 09:49:56;;;;;;;3.53;2.40;;;27.20;71.10;;;;;;5092774;28;20718;-57
2022/06/24 09:52:24;;;;;;;2.80;2.47;;;27.60;70.00;;;;;;5092501;28;20483;-58
2022/06/24 09:54:49;;;;;;;5.10;2.47;;;28.00;68.90;;;;;;5093007;28;20184;-58
2022/06/24 09:57:16;;;;;;;2.57;2.37;;;28.30;66.80;;;;;;5091991;28;20519;-57
2022/06/24 10:02:47;;;;;;;3.20;2.03;;;28.50;65.00;;;;;;5019096;28;20471;-58
2022/06/24 10:05:15;;;;;;;4.07;2.70;;;28.50;64.10;;;;;;5031530;28;20456;-59
2022/06/24 10:07:44;;;;;;;3.00;2.80;;;28.30;64.10;;;;;;5060529;28;20771;-59
2022/06/24 10:10:10;;;;;;;4.70;2.20;;;28.00;65.30;;;;;;5092403;28;20429;-59
2022/06/24 10:12:40;;;;;;;3.60;2.10;;;27.90;65.30;;;;;;5095398;28;20445;-57
2022/06/24 10:15:06;;;;;;;3.80;2.90;;;28.30;64.20;;;;;;5096365;28;20436;-60
2022/06/24 10:17:34;;;;;;;3.13;2.20;;;28.50;60.60;;;;;;5094863;28;20437;-58
2022/06/24 10:20:01;;;;;;;2.67;2.40;;;28.40;60.40;;;;;;5092837;28;20480;-59
2022/06/24 10:22:57;;;;;;;3.43;2.43;;;27.90;61.70;;;;;;5095160;28;20459;-57
2022/06/24 10:25:48;;;;;;;3.13;2.10;;;27.90;63.50;;;;;;5055998;28;20426;-60
2022/06/24 10:28:14;;;;;;;2.83;2.00;;;28.40;62.30;;;;;;5082226;28;20691;-59
2022/06/24 10:30:40;;;;;;;2.43;2.00;;;29.00;59.50;;;;;;5090590;28;20506;-57
2022/06/24 10:33:27;;;;;;;3.83;2.60;;;29.20;58.80;;;;;;5094381;28;20462;-56
2022/06/24 10:36:04;;;;;;;2.27;1.97;;;29.00;58.60;;;;;;5094783;28;20558;-54
2022/06/24 10:38:40;;;;;;;2.90;2.00;;;28.80;60.40;;;;;;5094205;28;20914;-55
2022/06/24 10:41:09;;;;;;;3.10;1.77;;;28.80;61.10;;;;;;5090709;28;20517;-56
2022/06/24 10:43:44;;;;;;;2.43;1.93;;;28.70;59.90;;;;;;5088858;28;20453;-55
2022/06/24 10:46:13;;;;;;;3.50;2.80;;;28.70;59.30;;;;;;5093790;28;20418;-59
2022/06/24 10:48:45;;;;;;;3.47;2.20;;;28.50;59.50;;;;;;5091266;28;20414;-56
2022/06/24 10:51:15;;;;;;;3.37;2.80;;;28.20;59.20;;;;;;5094738;28;21001;-59
2022/06/24 10:54:03;;;;;;;3.43;2.30;;;27.80;59.80;;;;;;5095031;28;20720;-54
2022/06/24 10:56:42;;;;;;;3.67;2.13;;;27.60;61.40;;;;;;5091900;28;20414;-57
2022/06/24 10:59:08;;;;;;;3.33;1.83;;;27.60;62.10;;;;;;5094120;28;20437;-52
2022/06/24 11:01:33;;;;;;;3.40;1.93;;;27.50;61.50;;;;;;5092494;28;20430;-55
2022/06/24 11:04:04;;;;;;;3.20;2.00;;;27.40;61.20;;;;;;5092527;28;20865;-54
2022/06/24 11:06:30;;;;;;;3.23;2.10;;;26.90;62.20;;;;;;5092771;28;20438;-56
2022/06/24 11:09:05;;;;;;;2.23;2.00;;;26.50;63.00;;;;;;5091797;28;20520;-56
2022/06/24 11:11:31;;;;;;;2.20;1.90;;;26.50;63.80;;;;;;5089962;28;20190;-56
2022/06/24 11:13:58;;;;;;;3.77;2.13;;;26.70;64.20;;;;;;5090175;28;20787;-57
2022/06/24 11:16:28;;;;;;;2.87;2.00;;;27.60;63.50;;;;;;5092727;28;20446;-58
2022/06/24 11:18:54;;;;;;;2.00;1.73;;;28.70;59.60;;;;;;5093930;28;20520;-57
2022/06/24 11:21:19;;;;;;;2.87;2.13;;;28.50;58.50;;;;;;5092195;28;20491;-55
2022/06/24 11:23:46;;;;;;;2.30;1.90;;;27.90;59.70;;;;;;5093103;28;20204;-54
2022/06/24 11:26:16;;;;;;;2.83;1.80;;;27.60;60.30;;;;;;5090225;28;20560;-53
2022/06/24 11:28:46;;;;;;;2.50;1.93;;;27.30;62.00;;;;;;5088020;28;20426;-56
2022/06/24 11:31:25;;;;;;;3.20;2.00;;;27.40;62.60;;;;;;5088899;28;20539;-56
2022/06/24 11:34:07;;;;;;;2.30;2.00;;;27.30;61.80;;;;;;5089095;28;20407;-57
2022/06/24 11:36:33;;;;;;;2.00;1.80;;;27.50;61.70;;;;;;5090622;28;20461;-54
2022/06/24 11:39:04;;;;;;;5.20;2.17;;;27.70;60.80;;;;;;5090222;28;20423;-56
2022/06/24 11:41:33;;;;;;;7.00;3.60;;;28.00;63.10;;;;;;5090788;28;20459;-56
2022/06/24 11:43:59;;;;;;;4.60;2.90;;;28.40;66.80;;;;;;5090257;28;20470;-55
2022/06/24 11:46:25;;;;;;;4.20;3.07;;;28.60;67.60;;;;;;5090266;28;20865;-57
2022/06/24 11:49:08;;;;;;;3.50;3.07;;;28.70;67.50;;;;;;5090718;28;20179;-56
2022/06/24 11:51:34;;;;;;;3.47;3.10;;;28.80;68.30;;;;;;5089498;28;20415;-55
2022/06/24 11:54:00;;;;;;;3.17;2.57;;;28.80;66.20;;;;;;5091158;28;20498;-58
2022/06/24 11:56:31;;;;;;;3.07;2.83;;;28.70;66.20;;;;;;5090793;28;20232;-56
2022/06/24 11:58:58;;;;;;;2.80;2.60;;;28.50;64.60;;;;;;5088830;28;20426;-58
2022/06/24 12:01:24;;;;;;;3.10;2.77;;;28.40;64.40;;;;;;5095383;28;20585;-58
2022/06/24 12:03:52;;;;;;;3.23;2.70;;;28.30;64.00;;;;;;5095072;28;20724;-58
2022/06/24 12:06:18;;;;;;;3.10;2.77;;;28.20;63.80;;;;;;5096395;28;20856;-57
2022/06/24 12:08:45;;;;;;;4.37;2.80;;;28.00;63.90;;;;;;5098039;28;20382;-57
2022/06/24 12:11:17;;;;;;;3.20;2.50;;;27.70;65.10;;;;;;5097061;28;20507;-56
2022/06/24 12:14:04;;;;;;;3.80;2.93;;;27.50;65.90;;;;;;5097776;28;20547;-57
2022/06/24 12:17:02;;;;;;;4.77;3.10;;;27.10;68.10;;;;;;5096669;28;20411;-59
2022/06/24 12:19:33;;;;;;;5.27;3.20;;;26.60;70.40;;;;;;5096708;28;20468;-53
2022/06/24 12:22:18;;;;;;;6.47;3.10;;;26.40;73.60;;;;;;5096398;28;20411;-55
2022/06/24 12:24:44;;;;;;;3.53;3.23;;;26.10;77.40;;;;;;5096213;28;20596;-58
2022/06/24 12:27:10;;;;;;;4.07;2.97;;;25.90;78.90;;;;;;5096510;28;20409;-55
2022/06/24 12:29:37;;;;;;;4.03;3.10;;;25.70;80.80;;;;;;5097241;28;20270;-57
2022/06/24 12:32:05;;;;;;;4.20;2.50;;;25.50;82.40;;;;;;5094301;28;20277;-57
2022/06/24 12:34:32;;;;;;;6.10;3.00;;;25.30;84.20;;;;;;5095470;28;20452;-57
2022/06/24 12:37:06;;;;;;;3.30;3.00;;;25.20;86.10;;;;;;5094296;28;20826;-55
2022/06/24 12:39:36;;;;;;;3.57;2.97;;;25.20;87.10;;;;;;5097501;28;20496;-57
2022/06/24 12:42:03;;;;;;;6.80;2.90;;;25.10;87.40;;;;;;5096069;28;20406;-55
2022/06/24 12:44:46;;;;;;;2.83;2.63;;;25.10;87.50;;;;;;5094579;28;20447;-56
2022/06/24 12:52:56;;;;;;;3.00;2.70;;;25.20;86.80;;;;;;5094239;28;20470;-58
2022/06/24 12:55:22;;;;;;;4.73;2.70;;;25.20;86.60;;;;;;5092478;28;20715;-55
2022/06/24 12:57:47;;;;;;;7.53;2.60;;;25.20;85.80;;;;;;5093659;28;20414;-57
2022/06/24 13:00:15;;;;;;;7.33;3.43;;;25.20;85.90;;;;;;5096406;28;20188;-56
2022/06/24 13:02:43;;;;;;;4.73;2.83;;;25.20;87.00;;;;;;5095067;28;20283;-58
2022/06/24 13:05:09;;;;;;;2.83;2.53;;;25.20;86.70;;;;;;5080648;28;20437;-56
2022/06/24 13:07:36;;;;;;;3.20;2.30;;;25.30;86.50;;;;;;5097248;28;20429;-58
2022/06/24 13:10:02;;;;;;;4.87;2.93;;;25.30;85.40;;;;;;5098688;28;20454;-59